createdAt,value
2022-12-19T00:00:44.918Z,99720.88
2022-12-19T00:03:15.775Z,99731.94
2022-12-19T00:05:43.809Z,99728.75
2022-12-19T00:08:17.619Z,99726.66
2022-12-19T00:10:56.260Z,99730.44
2022-12-19T00:13:31.170Z,99737.19
2022-12-19T00:16:03.893Z,99735.50
2022-12-19T00:18:31.835Z,99721.50
2022-12-19T00:21:01.276Z,99720.44
2022-12-19T00:23:33.335Z,99721.50
2022-12-19T00:26:10.986Z,99725.75
2022-12-19T00:28:46.040Z,99717.66
2022-12-19T00:31:17.036Z,99721.69
2022-12-19T00:33:47.891Z,99714.09
2022-12-19T00:36:22.420Z,99711.50
2022-12-19T00:38:51.753Z,99701.94
2022-12-19T00:41:30.438Z,99701.03
2022-12-19T00:43:59.414Z,99680.47
2022-12-19T00:46:28.377Z,99683.72
2022-12-19T00:49:01.124Z,99667.06
2022-12-19T00:51:32.888Z,99659.94
2022-12-19T00:54:01.077Z,99682.03
2022-12-19T00:56:37.124Z,99693.41
2022-12-19T00:59:08.893Z,99687.22
2022-12-19T01:01:39.460Z,99682.66
2022-12-19T01:07:02.522Z,99667.19
2022-12-19T01:09:35.899Z,99667.91
2022-12-19T01:12:24.623Z,99670.22
2022-12-19T01:15:04.640Z,99666.53
2022-12-19T01:17:44.280Z,99650.09
2022-12-19T01:20:14.535Z,99647.50
2022-12-19T01:22:42.394Z,99642.25
2022-12-19T01:25:10.464Z,99658.59
2022-12-19T01:27:41.649Z,99651.63
2022-12-19T01:30:11.234Z,99651.13
2022-12-19T01:32:40.283Z,99657.84
2022-12-19T01:35:10.869Z,99654.25
2022-12-19T01:37:48.711Z,99647.34
2022-12-19T01:40:17.961Z,99648.06
2022-12-19T01:42:50.068Z,99643.81
2022-12-19T01:45:33.446Z,99645.44
2022-12-19T01:48:08.345Z,99641.25
2022-12-19T01:50:40.797Z,99629.16
2022-12-19T01:53:19.096Z,99635.28
2022-12-19T01:55:50.210Z,99628.16
2022-12-19T01:58:20.354Z,99624.00
2022-12-19T02:00:48.603Z,99619.69
2022-12-19T02:03:22.005Z,99610.34
2022-12-19T02:05:52.999Z,99609.13
2022-12-19T02:08:22.109Z,99609.13
2022-12-19T02:10:50.301Z,99606.75
2022-12-19T02:13:20.746Z,99603.22
2022-12-19T02:15:57.310Z,99596.88
2022-12-19T02:18:39.919Z,99604.72
2022-12-19T02:21:42.966Z,99602.25
2022-12-19T02:24:35.423Z,99597.06
2022-12-19T02:27:40.160Z,99605.84
2022-12-19T02:30:13.556Z,99600.59
2022-12-19T02:33:04.437Z,99606.59
2022-12-19T02:35:42.907Z,99598.78
2022-12-19T02:38:18.676Z,99603.84
2022-12-19T02:40:55.644Z,99586.44
2022-12-19T02:43:26.626Z,99586.59
2022-12-19T02:45:56.414Z,99584.06
2022-12-19T02:48:28.530Z,99577.84
2022-12-19T02:50:56.562Z,99595.41
2022-12-19T02:53:25.773Z,99599.22
2022-12-19T02:56:22.475Z,99595.09
2022-12-19T02:59:03.768Z,99604.47
2022-12-19T03:01:43.432Z,99600.91
2022-12-19T03:04:28.938Z,99605.47
2022-12-19T03:07:03.662Z,99589.66
2022-12-19T03:09:46.467Z,99585.25
2022-12-19T03:12:22.898Z,99574.97
2022-12-19T03:14:53.736Z,99591.34
2022-12-19T03:17:22.498Z,99589.50
2022-12-19T03:19:51.804Z,99599.94
2022-12-19T03:22:19.915Z,99596.09
2022-12-19T03:24:50.138Z,99599.03
2022-12-19T03:27:23.888Z,99608.22
2022-12-19T03:29:56.043Z,99614.25
2022-12-19T03:32:25.791Z,99620.59
2022-12-19T03:34:59.578Z,99618.72
2022-12-19T03:37:32.852Z,99618.81
2022-12-19T03:40:09.972Z,99625.13
2022-12-19T03:42:58.928Z,99618.97
2022-12-19T03:45:35.211Z,99609.25
2022-12-19T03:48:09.218Z,99605.03
2022-12-19T03:50:45.865Z,99605.00
2022-12-19T03:53:26.007Z,99609.09
2022-12-19T03:55:59.181Z,99607.56
2022-12-19T03:58:32.255Z,99599.50
2022-12-19T04:01:01.309Z,99606.44
2022-12-19T04:03:32.001Z,99598.72
2022-12-19T04:06:02.970Z,99597.91
2022-12-19T04:08:33.028Z,99608.22
2022-12-19T04:11:06.084Z,99613.63
2022-12-19T04:13:38.838Z,99613.41
2022-12-19T04:16:13.964Z,99610.66
2022-12-19T04:18:47.300Z,99618.50
2022-12-19T04:21:20.768Z,99614.84
2022-12-19T04:23:53.374Z,99608.84
2022-12-19T04:26:23.988Z,99613.06
2022-12-19T04:28:55.494Z,99616.69
2022-12-19T04:31:26.005Z,99617.50
2022-12-19T04:33:53.849Z,99616.69
2022-12-19T04:36:23.265Z,99621.63
2022-12-19T04:38:51.097Z,99622.59
2022-12-19T04:41:19.013Z,99616.41
2022-12-19T04:43:46.938Z,99620.44
2022-12-19T04:46:14.844Z,99619.47
2022-12-19T04:48:42.672Z,99614.53
2022-12-19T04:51:10.507Z,99611.97
2022-12-19T04:53:42.217Z,99616.25
2022-12-19T04:56:10.811Z,99617.94
2022-12-19T04:58:38.948Z,99610.03
2022-12-19T05:01:10.243Z,99618.63
2022-12-19T05:03:38.622Z,99612.28
2022-12-19T05:06:08.246Z,99611.53
2022-12-19T05:08:36.854Z,99606.97
2022-12-19T05:11:13.285Z,99607.81
2022-12-19T05:13:43.906Z,99595.78
2022-12-19T05:16:13.741Z,99592.31
2022-12-19T05:18:41.561Z,99597.34
2022-12-19T05:21:11.004Z,99588.59
2022-12-19T05:23:39.452Z,99584.09
2022-12-19T05:26:08.828Z,99586.69
2022-12-19T05:28:36.643Z,99581.41
2022-12-19T05:31:09.076Z,99582.19
2022-12-19T05:33:37.182Z,99584.78
2022-12-19T05:36:05.431Z,99581.59
2022-12-19T05:38:58.903Z,99585.84
2022-12-19T05:41:28.079Z,99585.56
2022-12-19T05:43:57.238Z,99583.84
2022-12-19T05:46:25.765Z,99585.63
2022-12-19T05:48:54.897Z,99580.34
2022-12-19T05:51:23.076Z,99588.25
2022-12-19T05:53:50.913Z,99575.97
2022-12-19T05:56:20.179Z,99578.69
2022-12-19T05:58:51.805Z,99587.19
2022-12-19T06:01:22.292Z,99581.03
2022-12-19T06:03:50.823Z,99572.38
2022-12-19T06:06:20.962Z,99564.94
2022-12-19T06:08:54.157Z,99573.50
2022-12-19T06:11:22.237Z,99576.97
2022-12-19T06:13:51.593Z,99562.75
2022-12-19T06:16:21.346Z,99555.91
2022-12-19T06:18:49.234Z,99560.16
2022-12-19T06:21:19.134Z,99568.78
2022-12-19T06:23:48.171Z,99562.75
2022-12-19T06:26:20.135Z,99561.09
2022-12-19T06:28:48.249Z,99564.47
2022-12-19T06:31:18.076Z,99568.72
2022-12-19T06:33:49.421Z,99564.28
2022-12-19T06:36:20.188Z,99571.03
2022-12-19T06:38:48.144Z,99572.84
2022-12-19T06:41:34.440Z,99572.63
2022-12-19T06:44:03.734Z,99565.09
2022-12-19T06:46:35.396Z,99556.47
2022-12-19T06:49:03.585Z,99556.41
2022-12-19T06:51:31.490Z,99560.38
2022-12-19T06:53:59.730Z,99553.34
2022-12-19T06:56:28.059Z,99560.22
2022-12-19T06:58:55.884Z,99564.50
2022-12-19T07:01:35.936Z,99565.81
2022-12-19T07:04:05.405Z,99563.19
2022-12-19T07:06:35.715Z,99565.69
2022-12-19T07:09:03.610Z,99561.88
2022-12-19T07:11:31.551Z,99557.53
2022-12-19T07:13:59.441Z,99560.13
2022-12-19T07:16:28.670Z,99555.75
2022-12-19T07:18:56.652Z,99558.41
2022-12-19T07:21:26.175Z,99552.19
2022-12-19T07:23:56.420Z,99555.53
2022-12-19T07:26:24.392Z,99559.06
2022-12-19T07:28:52.295Z,99552.84
2022-12-19T07:31:20.064Z,99536.31
2022-12-19T07:33:50.051Z,99548.91
2022-12-19T07:36:20.316Z,99548.66
2022-12-19T07:38:52.904Z,99559.06
2022-12-19T07:41:20.822Z,99560.75
2022-12-19T07:43:48.711Z,99563.34
2022-12-19T07:46:16.951Z,99564.84
2022-12-19T07:48:44.804Z,99559.78
2022-12-19T07:51:12.656Z,99550.88
2022-12-19T07:53:40.451Z,99556.91
2022-12-19T07:56:09.996Z,99550.91
2022-12-19T07:58:38.346Z,99561.19
2022-12-19T08:01:16.092Z,99562.56
2022-12-19T08:03:46.571Z,99557.28
2022-12-19T08:06:16.294Z,99558.22
2022-12-19T08:08:44.229Z,99557.50
2022-12-19T08:11:18.714Z,99558.19
2022-12-19T08:13:49.216Z,99559.72
2022-12-19T08:16:19.813Z,99567.25
2022-12-19T08:18:53.462Z,99573.69
2022-12-19T08:21:24.347Z,99578.91
2022-12-19T08:23:55.565Z,99578.88
2022-12-19T08:26:32.700Z,99571.09
2022-12-19T08:29:05.655Z,99571.28
2022-12-19T08:31:36.738Z,99578.28
2022-12-19T08:34:09.751Z,99576.50
2022-12-19T08:36:38.485Z,99575.41
2022-12-19T08:39:15.129Z,99568.63
2022-12-19T08:41:44.678Z,99569.06
2022-12-19T08:44:13.262Z,99567.06
2022-12-19T08:46:46.567Z,99574.69
2022-12-19T08:49:17.618Z,99573.16
2022-12-19T08:51:45.473Z,99574.00
2022-12-19T08:54:13.476Z,99559.94
2022-12-19T08:56:45.177Z,99559.25
2022-12-19T08:59:24.973Z,99569.97
2022-12-19T09:02:02.455Z,99559.59
2022-12-19T09:05:59.913Z,99552.31
2022-12-19T09:07:19.238Z,99560.50
2022-12-19T09:09:47.180Z,99550.94
2022-12-19T09:12:17.458Z,99550.06
2022-12-19T09:14:46.704Z,99552.28
2022-12-19T09:17:15.135Z,99541.34
2022-12-19T09:19:47.831Z,99540.56
2022-12-19T09:22:16.751Z,99545.78
2022-12-19T09:24:46.434Z,99547.41
2022-12-19T09:27:16.802Z,99550.56
2022-12-19T09:29:54.991Z,99547.06
2022-12-19T09:32:26.128Z,99548.94
2022-12-19T09:34:58.384Z,99549.69
2022-12-19T09:37:28.991Z,99544.13
2022-12-19T09:39:59.672Z,99546.94
2022-12-19T09:42:43.842Z,99546.78
2022-12-19T09:45:42.036Z,99540.88
2022-12-19T09:48:24.219Z,99539.47
2022-12-19T09:51:09.232Z,99539.59
2022-12-19T09:53:54.642Z,99529.53
2022-12-19T09:56:29.878Z,99526.00
2022-12-19T09:59:10.244Z,99527.06
2022-12-19T10:01:50.801Z,99527.97
2022-12-19T10:04:20.252Z,99537.44
2022-12-19T10:07:12.835Z,99531.06
2022-12-19T10:12:34.499Z,99531.44
2022-12-19T10:12:49.822Z,99525.63
2022-12-19T10:15:29.734Z,99528.03
2022-12-19T10:18:13.753Z,99511.28
2022-12-19T10:20:49.945Z,99507.75
2022-12-19T10:23:48.378Z,99504.31
2022-12-19T10:26:20.752Z,99511.59
2022-12-19T10:29:08.076Z,99504.63
2022-12-19T10:31:41.482Z,99506.09
2022-12-19T10:34:22.819Z,99510.78
2022-12-19T10:39:53.177Z,99482.94
2022-12-19T10:42:35.602Z,99487.38
2022-12-19T10:45:14.336Z,99475.84
2022-12-19T10:47:44.560Z,99480.38
2022-12-19T10:50:24.059Z,99474.78
2022-12-19T10:52:54.957Z,99484.59
2022-12-19T10:55:28.818Z,99488.13
2022-12-19T10:57:59.255Z,99484.28
2022-12-19T11:00:29.160Z,99477.81
2022-12-19T11:03:16.840Z,99457.72
2022-12-19T11:05:58.147Z,99459.06
2022-12-19T11:08:33.142Z,99449.19
2022-12-19T11:12:08.320Z,99441.16
2022-12-19T11:18:17.094Z,99440.47
2022-12-19T11:21:26.893Z,99443.53
2022-12-19T11:29:19.403Z,99442.13
2022-12-19T11:29:37.686Z,99450.16
2022-12-19T11:30:08.652Z,99433.50
2022-12-19T11:30:43.838Z,99446.53
2022-12-19T11:34:16.809Z,99434.94
2022-12-19T11:36:50.762Z,99428.50
2022-12-19T11:39:26.480Z,99417.09
2022-12-19T11:42:02.103Z,99424.25
2022-12-19T11:44:35.601Z,99407.72
2022-12-19T11:47:13.527Z,99410.63
2022-12-19T11:49:46.274Z,99415.66
2022-12-19T11:53:02.421Z,99410.53
2022-12-19T11:55:25.520Z,99400.06
2022-12-19T11:57:55.279Z,99401.53
2022-12-19T12:00:25.958Z,99393.91
2022-12-19T12:03:28.395Z,99389.84
2022-12-19T12:05:58.508Z,99386.44
2022-12-19T12:10:56.283Z,99393.66
2022-12-19T12:17:39.190Z,99388.16
2022-12-19T12:25:02.731Z,99382.50
2022-12-19T12:31:01.793Z,99376.63
2022-12-19T12:31:01.843Z,99389.56
2022-12-19T12:31:47.165Z,99376.22
2022-12-19T12:31:52.739Z,99383.84
2022-12-19T12:32:05.064Z,99387.31
2022-12-19T12:35:32.823Z,99379.19
2022-12-19T12:39:04.703Z,99365.03
2022-12-19T12:42:02.374Z,99355.22
2022-12-19T12:44:36.299Z,99357.41
2022-12-19T12:47:16.490Z,99343.50
2022-12-19T12:49:47.492Z,99342.22
2022-12-19T12:52:20.889Z,99344.44
2022-12-19T12:54:53.824Z,99347.91
2022-12-19T12:57:36.477Z,99350.22
2022-12-19T13:00:24.700Z,99346.31
2022-12-19T13:02:57.361Z,99341.91
2022-12-19T13:05:35.602Z,99345.81
2022-12-19T13:08:46.980Z,99336.84
2022-12-19T13:11:55.909Z,99336.94
2022-12-19T13:14:45.341Z,99338.53
2022-12-19T13:17:46.010Z,99339.47
2022-12-19T13:20:45.666Z,99335.66
2022-12-19T13:23:34.044Z,99341.78
2022-12-19T13:26:01.963Z,99334.47
2022-12-19T13:28:41.795Z,99334.09
2022-12-19T13:31:22.900Z,99337.34
2022-12-19T13:34:28.101Z,99340.53
2022-12-19T13:39:55.537Z,99347.16
2022-12-19T13:40:30.565Z,99338.97
2022-12-19T13:43:27.226Z,99328.84
2022-12-19T13:45:57.691Z,99333.59
2022-12-19T13:48:31.651Z,99342.56
2022-12-19T13:51:08.435Z,99338.84
2022-12-19T13:53:41.809Z,99338.41
2022-12-19T13:56:14.995Z,99341.22
2022-12-19T13:58:48.315Z,99343.69
2022-12-19T14:01:26.027Z,99339.91
2022-12-19T14:03:56.448Z,99340.34
2022-12-19T14:06:31.454Z,99343.25
2022-12-19T14:11:23.678Z,99349.81
2022-12-19T14:12:18.427Z,99356.75
2022-12-19T14:15:13.491Z,99359.38
2022-12-19T14:17:49.167Z,99351.97
2022-12-19T14:22:02.055Z,99350.75
2022-12-19T14:23:14.189Z,99351.38
2022-12-19T14:28:19.824Z,99362.78
2022-12-19T14:28:50.701Z,99365.06
2022-12-19T14:31:25.537Z,99362.16
2022-12-19T14:36:50.709Z,99358.84
2022-12-19T14:39:28.867Z,99361.63
2022-12-19T14:42:56.999Z,99352.25
2022-12-19T14:54:02.606Z,99350.38
2022-12-19T14:54:09.039Z,99359.09
2022-12-19T14:54:37.408Z,99340.03
2022-12-19T14:57:25.291Z,99346.50
2022-12-19T15:01:07.828Z,99366.50
2022-12-19T15:03:29.264Z,99361.75
2022-12-19T15:07:07.604Z,99358.59
2022-12-19T15:11:00.712Z,99357.03
2022-12-19T15:14:20.296Z,99351.03
2022-12-19T15:15:22.477Z,99346.03
2022-12-19T15:17:52.346Z,99344.88
2022-12-19T15:20:20.384Z,99342.25
2022-12-19T15:22:48.511Z,99340.25
2022-12-19T15:25:44.121Z,99346.44
2022-12-19T15:28:13.014Z,99338.03
2022-12-19T15:30:44.115Z,99349.13
2022-12-19T15:33:15.810Z,99355.78
2022-12-19T15:35:44.075Z,99346.81
2022-12-19T15:38:11.996Z,99346.19
2022-12-19T15:40:42.643Z,99350.84
2022-12-19T15:43:53.155Z,99347.38
2022-12-19T15:46:07.420Z,99347.53
2022-12-19T15:48:40.283Z,99344.38
2022-12-19T15:51:13.127Z,99346.03
2022-12-19T15:53:41.627Z,99344.78
2022-12-19T15:56:26.092Z,99336.22
2022-12-19T15:58:55.759Z,99330.50
2022-12-19T16:01:25.570Z,99334.66
2022-12-19T16:03:54.008Z,99345.25
2022-12-19T16:06:22.201Z,99342.41
2022-12-19T16:08:50.164Z,99337.16
2022-12-19T16:11:20.884Z,99340.78
2022-12-19T16:13:52.974Z,99342.56
2022-12-19T16:16:21.438Z,99338.53
2022-12-19T16:19:01.799Z,99324.41
2022-12-19T16:21:34.289Z,99325.28
2022-12-19T16:24:02.447Z,99325.88
2022-12-19T16:26:34.433Z,99326.69
2022-12-19T16:29:02.821Z,99336.34
2022-12-19T16:31:30.792Z,99323.56
2022-12-19T16:34:02.311Z,99330.88
2022-12-19T16:36:30.108Z,99312.47
2022-12-19T16:38:57.895Z,99308.31
2022-12-19T16:41:28.455Z,99304.91
2022-12-19T16:43:57.128Z,99316.56
2022-12-19T16:46:30.856Z,99314.59
2022-12-19T16:49:00.197Z,99314.69
2022-12-19T16:51:29.172Z,99327.09
2022-12-19T16:53:59.818Z,99315.75
2022-12-19T16:56:31.388Z,99300.97
2022-12-19T16:59:01.963Z,99307.97
2022-12-19T17:01:30.821Z,99293.03
2022-12-19T17:03:59.990Z,99307.78
2022-12-19T17:06:27.851Z,99309.91
2022-12-19T17:08:55.776Z,99311.13
2022-12-19T17:11:26.360Z,99314.53
2022-12-19T17:13:58.138Z,99310.78
2022-12-19T17:16:26.089Z,99310.00
2022-12-19T17:18:54.273Z,99307.72
2022-12-19T17:21:24.423Z,99303.34
2022-12-19T17:23:54.979Z,99310.38
2022-12-19T17:26:22.886Z,99304.31
2022-12-19T17:28:51.105Z,99298.16
2022-12-19T17:31:24.605Z,99309.38
2022-12-19T17:33:55.341Z,99311.06
2022-12-19T17:36:34.749Z,99312.97
2022-12-19T17:39:18.313Z,99326.41
2022-12-19T17:41:46.219Z,99314.41
2022-12-19T17:44:14.232Z,99308.44
2022-12-19T17:46:42.295Z,99321.59
2022-12-19T17:49:17.638Z,99317.56
2022-12-19T17:51:52.233Z,99325.13
2022-12-19T17:54:23.228Z,99313.50
2022-12-19T17:56:53.668Z,99321.59
2022-12-19T17:59:21.811Z,99324.03
2022-12-19T18:01:49.864Z,99325.09
2022-12-19T18:04:21.066Z,99322.56
2022-12-19T18:06:50.838Z,99326.97
2022-12-19T18:09:20.471Z,99320.16
2022-12-19T18:11:48.817Z,99323.31
2022-12-19T18:14:17.261Z,99321.59
2022-12-19T18:16:46.366Z,99320.31
2022-12-19T18:19:19.584Z,99319.63
2022-12-19T18:21:51.471Z,99324.03
2022-12-19T18:24:19.419Z,99330.25
2022-12-19T18:26:47.481Z,99332.06
2022-12-19T18:29:16.352Z,99324.72
2022-12-19T18:31:50.577Z,99331.72
2022-12-19T18:34:21.638Z,99329.03
2022-12-19T18:36:51.270Z,99324.88
2022-12-19T18:39:24.310Z,99324.00
2022-12-19T18:41:52.996Z,99317.03
2022-12-19T18:44:22.633Z,99315.78
2022-12-19T18:46:51.576Z,99318.63
2022-12-19T18:49:22.885Z,99320.81
2022-12-19T18:51:52.244Z,99323.25
2022-12-19T18:54:23.117Z,99305.03
2022-12-19T18:56:51.931Z,99312.09
2022-12-19T18:59:20.076Z,99308.81
2022-12-19T19:01:48.657Z,99316.03
2022-12-19T19:04:18.011Z,99324.09
2022-12-19T19:06:51.527Z,99319.38
2022-12-19T19:09:22.741Z,99322.47
2022-12-19T19:12:15.508Z,99319.19
2022-12-19T19:14:43.427Z,99312.47
2022-12-19T19:17:24.664Z,99307.09
2022-12-19T19:19:52.732Z,99302.63
2022-12-19T19:22:20.842Z,99303.81
2022-12-19T19:24:50.579Z,99306.22
2022-12-19T19:27:18.566Z,99314.13
2022-12-19T19:29:49.576Z,99305.97
2022-12-19T19:32:17.669Z,99307.72
2022-12-19T19:34:47.857Z,99305.03
2022-12-19T19:37:16.848Z,99300.72
2022-12-19T19:39:44.979Z,99286.03
2022-12-19T19:42:14.302Z,99291.81
2022-12-19T19:44:42.240Z,99295.19
2022-12-19T19:47:10.450Z,99292.75
2022-12-19T19:49:39.715Z,99295.78
2022-12-19T19:52:07.680Z,99298.72
2022-12-19T19:54:36.482Z,99299.22
2022-12-19T19:57:04.513Z,99298.78
2022-12-19T19:59:33.961Z,99291.78
2022-12-19T20:02:02.125Z,99299.19
2022-12-19T20:04:30.560Z,99294.06
2022-12-19T20:07:00.991Z,99298.56
2022-12-19T20:09:31.285Z,99293.97
2022-12-19T20:12:02.280Z,99293.09
2022-12-19T20:14:30.140Z,99294.81
2022-12-19T20:17:01.485Z,99285.06
2022-12-19T20:19:29.326Z,99289.78
2022-12-19T20:21:58.718Z,99290.88
2022-12-19T20:24:29.307Z,99299.06
2022-12-19T20:26:57.910Z,99307.59
2022-12-19T20:29:26.780Z,99308.09
2022-12-19T20:31:56.397Z,99311.25
2022-12-19T20:34:25.945Z,99306.28
2022-12-19T20:36:53.945Z,99311.97
2022-12-19T20:39:22.925Z,99306.16
2022-12-19T20:41:51.280Z,99306.38
2022-12-19T20:44:24.435Z,99307.25
2022-12-19T20:46:52.732Z,99305.72
2022-12-19T20:49:21.553Z,99306.50
2022-12-19T20:51:50.843Z,99313.19
2022-12-19T20:54:19.187Z,99304.19
2022-12-19T20:56:47.219Z,99307.47
2022-12-19T20:59:15.168Z,99305.78
2022-12-19T21:01:43.212Z,99305.72
2022-12-19T21:04:11.520Z,99304.06
2022-12-19T21:06:41.244Z,99302.88
2022-12-19T21:09:11.481Z,99311.69
2022-12-19T21:11:40.109Z,99306.38
2022-12-19T21:14:11.603Z,99311.84
2022-12-19T21:16:39.592Z,99313.69
2022-12-19T21:19:07.582Z,99308.44
2022-12-19T21:21:38.411Z,99307.84
2022-12-19T21:24:06.550Z,99316.25
2022-12-19T21:26:35.753Z,99313.13
2022-12-19T21:29:03.897Z,99326.22
2022-12-19T21:31:32.168Z,99321.50
2022-12-19T21:34:02.433Z,99319.41
2022-12-19T21:36:32.133Z,99317.03
2022-12-19T21:39:02.013Z,99318.72
2022-12-19T21:41:30.170Z,99311.72
2022-12-19T21:44:00.514Z,99312.09
2022-12-19T21:46:33.179Z,99307.59
2022-12-19T21:49:02.904Z,99308.31
2022-12-19T21:51:32.717Z,99304.47
2022-12-19T21:54:02.675Z,99314.34
2022-12-19T21:56:31.937Z,99322.41
2022-12-19T21:59:06.467Z,99321.88
2022-12-19T22:01:35.107Z,99322.44
2022-12-19T22:04:07.041Z,99319.78
2022-12-19T22:06:38.063Z,99316.44
2022-12-19T22:09:08.109Z,99316.09
2022-12-19T22:11:36.916Z,99313.06
2022-12-19T22:14:06.941Z,99312.09
2022-12-19T22:16:35.890Z,99306.84
2022-12-19T22:19:06.658Z,99310.97
2022-12-19T22:21:35.406Z,99310.31
2022-12-19T22:24:05.814Z,99307.09
2022-12-19T22:26:35.530Z,99314.22
2022-12-19T22:29:09.743Z,99312.09
2022-12-19T22:31:39.113Z,99313.91
2022-12-19T22:34:11.841Z,99308.94
2022-12-19T22:36:41.247Z,99321.63
2022-12-19T22:39:11.849Z,99321.00
2022-12-19T22:41:42.905Z,99315.69
2022-12-19T22:44:17.317Z,99309.34
2022-12-19T22:46:45.218Z,99317.78
2022-12-19T22:49:14.214Z,99311.25
2022-12-19T22:51:42.504Z,99310.84
2022-12-19T22:54:11.889Z,99311.88
2022-12-19T22:56:42.505Z,99291.47
2022-12-19T22:59:14.386Z,99294.44
2022-12-19T23:01:44.228Z,99299.03
2022-12-19T23:04:15.180Z,99294.75
2022-12-19T23:06:43.556Z,99295.19
2022-12-19T23:09:16.011Z,99297.78
2022-12-19T23:11:48.551Z,99294.31
2022-12-19T23:14:19.560Z,99297.06
2022-12-19T23:16:47.788Z,99297.75
2022-12-19T23:19:16.889Z,99297.34
2022-12-19T23:21:45.004Z,99299.56
2022-12-19T23:24:15.246Z,99305.41
2022-12-19T23:26:43.394Z,99297.34
2022-12-19T23:29:13.255Z,99305.03
2022-12-19T23:31:44.935Z,99301.19
2022-12-19T23:34:13.291Z,99290.47
2022-12-19T23:39:29.026Z,99286.75
2022-12-19T23:41:57.068Z,99288.50
2022-12-19T23:44:25.059Z,99284.41
2022-12-19T23:47:00.814Z,99288.22
2022-12-19T23:49:30.954Z,99284.13
2022-12-19T23:52:01.557Z,99286.41
2022-12-19T23:54:29.470Z,99286.41
2022-12-19T23:56:57.406Z,99291.00
2022-12-19T23:59:27.668Z,99282.81
